sensor_id;sensor_type;location;lat;lon;timestamp;P1;durP1;ratioP1;P2;durP2;ratioP2
70369;SDS011;57790;51.356;-2.906;2022-07-30T00:02:39;8.35;;;2.10;;
70369;SDS011;57790;51.356;-2.906;2022-07-30T00:05:40;8.47;;;2.20;;
70369;SDS011;57790;51.356;-2.906;2022-07-30T00:08:41;6.03;;;2.27;;
70369;SDS011;57790;51.356;-2.906;2022-07-30T00:11:41;9.23;;;2.80;;
70369;SDS011;57790;51.356;-2.906;2022-07-30T00:14:42;8.60;;;2.47;;
70369;SDS011;57790;51.356;-2.906;2022-07-30T00:17:42;10.33;;;3.23;;
70369;SDS011;57790;51.356;-2.906;2022-07-30T00:20:42;8.30;;;2.77;;
70369;SDS011;57790;51.356;-2.906;2022-07-30T00:23:43;7.43;;;2.53;;
70369;SDS011;57790;51.356;-2.906;2022-07-30T00:26:43;8.13;;;2.40;;
70369;SDS011;57790;51.356;-2.906;2022-07-30T00:29:44;7.57;;;2.20;;
70369;SDS011;57790;51.356;-2.906;2022-07-30T00:32:44;7.60;;;2.47;;
70369;SDS011;57790;51.356;-2.906;2022-07-30T00:35:44;6.50;;;2.20;;
70369;SDS011;57790;51.356;-2.906;2022-07-30T00:38:45;7.67;;;2.10;;
70369;SDS011;57790;51.356;-2.906;2022-07-30T00:45:13;8.30;;;1.93;;
70369;SDS011;57790;51.356;-2.906;2022-07-30T00:48:15;5.32;;;1.80;;
70369;SDS011;57790;51.356;-2.906;2022-07-30T00:51:15;7.57;;;2.00;;
70369;SDS011;57790;51.356;-2.906;2022-07-30T00:54:16;6.23;;;2.20;;
70369;SDS011;57790;51.356;-2.906;2022-07-30T00:57:17;6.85;;;2.03;;
70369;SDS011;57790;51.356;-2.906;2022-07-30T01:00:17;7.60;;;2.27;;
70369;SDS011;57790;51.356;-2.906;2022-07-30T01:03:18;6.17;;;2.40;;
70369;SDS011;57790;51.356;-2.906;2022-07-30T01:06:18;5.70;;;1.93;;
70369;SDS011;57790;51.356;-2.906;2022-07-30T01:09:18;6.18;;;2.00;;
70369;SDS011;57790;51.356;-2.906;2022-07-30T01:12:19;9.00;;;2.50;;
70369;SDS011;57790;51.356;-2.906;2022-07-30T01:15:24;7.95;;;2.40;;
70369;SDS011;57790;51.356;-2.906;2022-07-30T01:18:25;5.43;;;2.07;;
70369;SDS011;57790;51.356;-2.906;2022-07-30T01:21:50;7.10;;;2.25;;
70369;SDS011;57790;51.356;-2.906;2022-07-30T01:28:17;6.43;;;2.20;;
70369;SDS011;57790;51.356;-2.906;2022-07-30T01:31:21;6.47;;;2.10;;
70369;SDS011;57790;51.356;-2.906;2022-07-30T01:34:26;5.87;;;1.70;;
70369;SDS011;57790;51.356;-2.906;2022-07-30T01:37:29;5.30;;;1.90;;
70369;SDS011;57790;51.356;-2.906;2022-07-30T01:40:32;8.27;;;1.90;;
70369;SDS011;57790;51.356;-2.906;2022-07-30T01:43:34;5.65;;;1.55;;
70369;SDS011;57790;51.356;-2.906;2022-07-30T01:46:35;6.20;;;1.80;;
70369;SDS011;57790;51.356;-2.906;2022-07-30T01:49:37;5.90;;;1.80;;
70369;SDS011;57790;51.356;-2.906;2022-07-30T01:52:40;5.82;;;1.58;;
70369;SDS011;57790;51.356;-2.906;2022-07-30T01:55:44;6.45;;;1.80;;
70369;SDS011;57790;51.356;-2.906;2022-07-30T01:58:45;6.32;;;1.63;;
70369;SDS011;57790;51.356;-2.906;2022-07-30T02:01:49;5.07;;;1.90;;
70369;SDS011;57790;51.356;-2.906;2022-07-30T02:04:50;5.90;;;1.77;;
70369;SDS011;57790;51.356;-2.906;2022-07-30T02:10:53;6.13;;;1.90;;
70369;SDS011;57790;51.356;-2.906;2022-07-30T02:14:00;6.13;;;1.73;;
70369;SDS011;57790;51.356;-2.906;2022-07-30T02:17:02;5.97;;;1.80;;
70369;SDS011;57790;51.356;-2.906;2022-07-30T02:20:08;7.88;;;1.60;;
70369;SDS011;57790;51.356;-2.906;2022-07-30T02:23:10;7.57;;;1.90;;
70369;SDS011;57790;51.356;-2.906;2022-07-30T02:26:16;7.57;;;1.90;;
70369;SDS011;57790;51.356;-2.906;2022-07-30T02:29:19;5.95;;;1.90;;
70369;SDS011;57790;51.356;-2.906;2022-07-30T02:32:22;7.22;;;2.00;;
70369;SDS011;57790;51.356;-2.906;2022-07-30T02:35:25;4.45;;;1.60;;
70369;SDS011;57790;51.356;-2.906;2022-07-30T02:38:28;6.20;;;2.00;;
70369;SDS011;57790;51.356;-2.906;2022-07-30T02:41:30;6.70;;;1.70;;
70369;SDS011;57790;51.356;-2.906;2022-07-30T02:44:32;6.95;;;1.80;;
70369;SDS011;57790;51.356;-2.906;2022-07-30T02:47:34;6.57;;;1.73;;
70369;SDS011;57790;51.356;-2.906;2022-07-30T02:50:38;4.93;;;1.65;;
70369;SDS011;57790;51.356;-2.906;2022-07-30T02:53:39;8.60;;;1.90;;
70369;SDS011;57790;51.356;-2.906;2022-07-30T02:56:43;7.03;;;1.80;;
70369;SDS011;57790;51.356;-2.906;2022-07-30T02:59:45;8.43;;;1.90;;
70369;SDS011;57790;51.356;-2.906;2022-07-30T03:02:48;5.60;;;1.80;;
70369;SDS011;57790;51.356;-2.906;2022-07-30T03:05:50;6.07;;;1.70;;
70369;SDS011;57790;51.356;-2.906;2022-07-30T03:08:51;6.32;;;1.80;;
70369;SDS011;57790;51.356;-2.906;2022-07-30T03:11:53;5.47;;;1.70;;
70369;SDS011;57790;51.356;-2.906;2022-07-30T03:14:56;8.13;;;1.70;;
70369;SDS011;57790;51.356;-2.906;2022-07-30T03:17:57;9.88;;;1.92;;
70369;SDS011;57790;51.356;-2.906;2022-07-30T03:20:59;7.15;;;1.92;;
70369;SDS011;57790;51.356;-2.906;2022-07-30T03:24:01;7.40;;;1.90;;
70369;SDS011;57790;51.356;-2.906;2022-07-30T03:27:03;6.53;;;2.03;;
70369;SDS011;57790;51.356;-2.906;2022-07-30T03:30:05;7.45;;;2.13;;
70369;SDS011;57790;51.356;-2.906;2022-07-30T03:33:06;8.00;;;2.15;;
70369;SDS011;57790;51.356;-2.906;2022-07-30T03:36:07;8.53;;;1.93;;
70369;SDS011;57790;51.356;-2.906;2022-07-30T03:39:11;9.90;;;2.00;;
70369;SDS011;57790;51.356;-2.906;2022-07-30T03:42:12;5.20;;;1.58;;
70369;SDS011;57790;51.356;-2.906;2022-07-30T03:45:14;6.22;;;1.90;;
70369;SDS011;57790;51.356;-2.906;2022-07-30T03:48:15;5.10;;;1.70;;
70369;SDS011;57790;51.356;-2.906;2022-07-30T03:51:16;5.80;;;1.97;;
70369;SDS011;57790;51.356;-2.906;2022-07-30T03:54:16;6.85;;;1.73;;
70369;SDS011;57790;51.356;-2.906;2022-07-30T03:57:18;5.37;;;1.80;;
70369;SDS011;57790;51.356;-2.906;2022-07-30T04:00:18;6.25;;;1.85;;
70369;SDS011;57790;51.356;-2.906;2022-07-30T04:03:25;7.57;;;2.27;;
70369;SDS011;57790;51.356;-2.906;2022-07-30T04:06:27;6.28;;;1.95;;
70369;SDS011;57790;51.356;-2.906;2022-07-30T04:09:28;6.17;;;1.73;;
70369;SDS011;57790;51.356;-2.906;2022-07-30T04:12:29;5.30;;;1.73;;
70369;SDS011;57790;51.356;-2.906;2022-07-30T04:15:29;7.53;;;2.00;;
70369;SDS011;57790;51.356;-2.906;2022-07-30T04:18:43;8.48;;;2.00;;
70369;SDS011;57790;51.356;-2.906;2022-07-30T04:21:49;6.38;;;1.70;;
70369;SDS011;57790;51.356;-2.906;2022-07-30T04:24:52;6.28;;;1.98;;
70369;SDS011;57790;51.356;-2.906;2022-07-30T04:27:55;6.23;;;1.80;;
70369;SDS011;57790;51.356;-2.906;2022-07-30T04:30:56;4.50;;;1.50;;
70369;SDS011;57790;51.356;-2.906;2022-07-30T04:33:57;5.75;;;1.70;;
70369;SDS011;57790;51.356;-2.906;2022-07-30T04:36:57;4.70;;;1.50;;
70369;SDS011;57790;51.356;-2.906;2022-07-30T04:39:58;8.17;;;1.90;;
70369;SDS011;57790;51.356;-2.906;2022-07-30T04:42:58;7.13;;;1.70;;
70369;SDS011;57790;51.356;-2.906;2022-07-30T04:45:59;7.03;;;1.73;;
70369;SDS011;57790;51.356;-2.906;2022-07-30T04:48:59;4.77;;;1.50;;
70369;SDS011;57790;51.356;-2.906;2022-07-30T04:52:00;5.93;;;1.60;;
70369;SDS011;57790;51.356;-2.906;2022-07-30T04:55:02;6.80;;;1.85;;
70369;SDS011;57790;51.356;-2.906;2022-07-30T04:58:05;5.47;;;1.80;;
70369;SDS011;57790;51.356;-2.906;2022-07-30T05:01:07;7.03;;;1.60;;
70369;SDS011;57790;51.356;-2.906;2022-07-30T05:04:08;6.65;;;1.50;;
70369;SDS011;57790;51.356;-2.906;2022-07-30T05:07:12;9.43;;;1.98;;
70369;SDS011;57790;51.356;-2.906;2022-07-30T05:10:13;4.97;;;1.50;;
70369;SDS011;57790;51.356;-2.906;2022-07-30T05:13:14;7.47;;;1.60;;
70369;SDS011;57790;51.356;-2.906;2022-07-30T05:16:15;7.75;;;1.77;;
70369;SDS011;57790;51.356;-2.906;2022-07-30T05:19:16;7.18;;;1.75;;
70369;SDS011;57790;51.356;-2.906;2022-07-30T05:22:17;6.13;;;1.90;;
70369;SDS011;57790;51.356;-2.906;2022-07-30T05:25:18;6.63;;;1.97;;
70369;SDS011;57790;51.356;-2.906;2022-07-30T05:28:18;6.53;;;2.47;;
70369;SDS011;57790;51.356;-2.906;2022-07-30T05:31:19;7.50;;;2.33;;
70369;SDS011;57790;51.356;-2.906;2022-07-30T05:34:19;6.97;;;2.40;;
70369;SDS011;57790;51.356;-2.906;2022-07-30T05:37:20;7.40;;;2.60;;
70369;SDS011;57790;51.356;-2.906;2022-07-30T05:40:20;7.17;;;2.47;;
70369;SDS011;57790;51.356;-2.906;2022-07-30T05:43:21;7.57;;;2.70;;
70369;SDS011;57790;51.356;-2.906;2022-07-30T05:46:21;8.33;;;2.67;;
70369;SDS011;57790;51.356;-2.906;2022-07-30T05:49:22;8.88;;;3.17;;
70369;SDS011;57790;51.356;-2.906;2022-07-30T05:52:23;10.13;;;3.40;;
70369;SDS011;57790;51.356;-2.906;2022-07-30T05:55:23;8.87;;;3.53;;
70369;SDS011;57790;51.356;-2.906;2022-07-30T05:58:24;10.52;;;3.60;;
70369;SDS011;57790;51.356;-2.906;2022-07-30T06:01:24;8.23;;;2.83;;
70369;SDS011;57790;51.356;-2.906;2022-07-30T06:04:25;9.60;;;3.35;;
70369;SDS011;57790;51.356;-2.906;2022-07-30T06:07:26;9.50;;;3.23;;
70369;SDS011;57790;51.356;-2.906;2022-07-30T06:10:27;11.80;;;3.42;;
70369;SDS011;57790;51.356;-2.906;2022-07-30T06:13:27;9.23;;;3.50;;
70369;SDS011;57790;51.356;-2.906;2022-07-30T06:16:28;8.90;;;3.30;;
70369;SDS011;57790;51.356;-2.906;2022-07-30T06:19:28;8.07;;;3.25;;
70369;SDS011;57790;51.356;-2.906;2022-07-30T06:22:29;7.53;;;3.10;;
70369;SDS011;57790;51.356;-2.906;2022-07-30T06:25:29;7.80;;;2.90;;
70369;SDS011;57790;51.356;-2.906;2022-07-30T06:28:30;7.53;;;2.93;;
70369;SDS011;57790;51.356;-2.906;2022-07-30T06:31:30;9.20;;;2.70;;
70369;SDS011;57790;51.356;-2.906;2022-07-30T06:34:30;8.93;;;2.85;;
70369;SDS011;57790;51.356;-2.906;2022-07-30T06:37:31;8.10;;;2.50;;
70369;SDS011;57790;51.356;-2.906;2022-07-30T06:40:31;5.63;;;1.87;;
70369;SDS011;57790;51.356;-2.906;2022-07-30T06:43:32;6.10;;;1.90;;
70369;SDS011;57790;51.356;-2.906;2022-07-30T06:46:32;7.17;;;2.10;;
70369;SDS011;57790;51.356;-2.906;2022-07-30T06:49:33;6.17;;;2.03;;
70369;SDS011;57790;51.356;-2.906;2022-07-30T06:52:35;6.00;;;2.08;;
70369;SDS011;57790;51.356;-2.906;2022-07-30T06:55:35;10.53;;;2.80;;
70369;SDS011;57790;51.356;-2.906;2022-07-30T06:58:36;7.60;;;2.63;;
70369;SDS011;57790;51.356;-2.906;2022-07-30T07:01:37;7.10;;;2.60;;
70369;SDS011;57790;51.356;-2.906;2022-07-30T07:04:37;7.50;;;2.50;;
70369;SDS011;57790;51.356;-2.906;2022-07-30T07:07:38;6.90;;;2.60;;
70369;SDS011;57790;51.356;-2.906;2022-07-30T07:10:39;6.00;;;2.47;;
70369;SDS011;57790;51.356;-2.906;2022-07-30T07:13:39;7.18;;;2.45;;
70369;SDS011;57790;51.356;-2.906;2022-07-30T07:16:39;6.67;;;2.73;;
70369;SDS011;57790;51.356;-2.906;2022-07-30T07:19:40;6.70;;;2.70;;
70369;SDS011;57790;51.356;-2.906;2022-07-30T07:22:40;7.33;;;2.90;;
70369;SDS011;57790;51.356;-2.906;2022-07-30T07:25:41;9.00;;;3.40;;
70369;SDS011;57790;51.356;-2.906;2022-07-30T07:28:41;8.45;;;3.10;;
70369;SDS011;57790;51.356;-2.906;2022-07-30T07:31:43;9.50;;;3.77;;
70369;SDS011;57790;51.356;-2.906;2022-07-30T07:34:43;11.30;;;3.90;;
70369;SDS011;57790;51.356;-2.906;2022-07-30T07:37:43;9.38;;;4.10;;
70369;SDS011;57790;51.356;-2.906;2022-07-30T07:40:44;10.50;;;4.10;;
70369;SDS011;57790;51.356;-2.906;2022-07-30T07:43:46;9.70;;;3.72;;
70369;SDS011;57790;51.356;-2.906;2022-07-30T07:46:46;10.50;;;3.80;;
70369;SDS011;57790;51.356;-2.906;2022-07-30T07:49:47;9.07;;;3.70;;
70369;SDS011;57790;51.356;-2.906;2022-07-30T07:52:47;9.07;;;3.67;;
70369;SDS011;57790;51.356;-2.906;2022-07-30T07:55:48;7.97;;;3.27;;
70369;SDS011;57790;51.356;-2.906;2022-07-30T07:58:48;9.20;;;3.53;;
70369;SDS011;57790;51.356;-2.906;2022-07-30T08:01:54;9.73;;;3.88;;
70369;SDS011;57790;51.356;-2.906;2022-07-30T08:04:54;11.50;;;3.57;;
70369;SDS011;57790;51.356;-2.906;2022-07-30T08:07:54;10.30;;;3.50;;
70369;SDS011;57790;51.356;-2.906;2022-07-30T08:10:55;8.77;;;2.60;;
70369;SDS011;57790;51.356;-2.906;2022-07-30T08:13:55;7.93;;;2.88;;
70369;SDS011;57790;51.356;-2.906;2022-07-30T08:16:56;7.00;;;2.50;;
70369;SDS011;57790;51.356;-2.906;2022-07-30T08:19:59;7.57;;;2.10;;
70369;SDS011;57790;51.356;-2.906;2022-07-30T08:23:00;6.55;;;2.42;;
70369;SDS011;57790;51.356;-2.906;2022-07-30T08:26:01;7.68;;;2.20;;
70369;SDS011;57790;51.356;-2.906;2022-07-30T08:29:02;6.93;;;2.20;;
70369;SDS011;57790;51.356;-2.906;2022-07-30T08:32:02;6.38;;;2.08;;
70369;SDS011;57790;51.356;-2.906;2022-07-30T08:35:03;8.27;;;2.20;;
70369;SDS011;57790;51.356;-2.906;2022-07-30T08:38:04;6.82;;;2.35;;
70369;SDS011;57790;51.356;-2.906;2022-07-30T08:41:05;5.60;;;1.93;;
70369;SDS011;57790;51.356;-2.906;2022-07-30T08:44:10;8.55;;;2.63;;
70369;SDS011;57790;51.356;-2.906;2022-07-30T08:47:14;7.57;;;3.00;;
70369;SDS011;57790;51.356;-2.906;2022-07-30T08:50:16;8.50;;;2.38;;
70369;SDS011;57790;51.356;-2.906;2022-07-30T08:53:17;6.50;;;2.15;;
70369;SDS011;57790;51.356;-2.906;2022-07-30T08:56:18;10.75;;;3.50;;
70369;SDS011;57790;51.356;-2.906;2022-07-30T08:59:18;10.93;;;3.73;;
70369;SDS011;57790;51.356;-2.906;2022-07-30T09:02:22;7.45;;;3.28;;
70369;SDS011;57790;51.356;-2.906;2022-07-30T09:05:23;9.07;;;2.70;;
70369;SDS011;57790;51.356;-2.906;2022-07-30T09:08:23;7.40;;;2.60;;
70369;SDS011;57790;51.356;-2.906;2022-07-30T09:11:24;7.60;;;2.67;;
70369;SDS011;57790;51.356;-2.906;2022-07-30T09:14:25;7.10;;;2.87;;
70369;SDS011;57790;51.356;-2.906;2022-07-30T09:17:25;7.20;;;2.60;;
70369;SDS011;57790;51.356;-2.906;2022-07-30T09:20:30;8.13;;;2.30;;
70369;SDS011;57790;51.356;-2.906;2022-07-30T09:23:33;7.63;;;2.35;;
70369;SDS011;57790;51.356;-2.906;2022-07-30T09:26:51;7.13;;;2.37;;
70369;SDS011;57790;51.356;-2.906;2022-07-30T09:29:57;7.47;;;2.80;;
70369;SDS011;57790;51.356;-2.906;2022-07-30T09:33:00;7.15;;;2.42;;
70369;SDS011;57790;51.356;-2.906;2022-07-30T09:36:06;6.90;;;2.40;;
70369;SDS011;57790;51.356;-2.906;2022-07-30T09:39:10;7.45;;;2.22;;
70369;SDS011;57790;51.356;-2.906;2022-07-30T09:45:17;4.82;;;1.40;;
70369;SDS011;57790;51.356;-2.906;2022-07-30T09:48:21;4.70;;;1.50;;
70369;SDS011;57790;51.356;-2.906;2022-07-30T09:51:36;6.32;;;1.60;;
70369;SDS011;57790;51.356;-2.906;2022-07-30T09:54:45;3.22;;;1.00;;
70369;SDS011;57790;51.356;-2.906;2022-07-30T09:57:54;3.55;;;1.10;;
70369;SDS011;57790;51.356;-2.906;2022-07-30T10:01:05;4.07;;;1.20;;
70369;SDS011;57790;51.356;-2.906;2022-07-30T10:04:05;3.37;;;1.10;;
70369;SDS011;57790;51.356;-2.906;2022-07-30T10:07:06;5.33;;;0.80;;
70369;SDS011;57790;51.356;-2.906;2022-07-30T10:10:20;2.20;;;0.80;;
70369;SDS011;57790;51.356;-2.906;2022-07-30T10:13:23;2.30;;;0.90;;
70369;SDS011;57790;51.356;-2.906;2022-07-30T10:16:26;3.75;;;1.02;;
70369;SDS011;57790;51.356;-2.906;2022-07-30T10:19:27;1.77;;;0.60;;
70369;SDS011;57790;51.356;-2.906;2022-07-30T10:22:30;2.83;;;0.60;;
70369;SDS011;57790;51.356;-2.906;2022-07-30T10:25:31;2.50;;;0.80;;
70369;SDS011;57790;51.356;-2.906;2022-07-30T10:28:31;3.40;;;0.80;;
70369;SDS011;57790;51.356;-2.906;2022-07-30T10:31:32;4.97;;;0.77;;
70369;SDS011;57790;51.356;-2.906;2022-07-30T10:34:32;3.50;;;1.47;;
70369;SDS011;57790;51.356;-2.906;2022-07-30T10:37:33;3.65;;;1.05;;
70369;SDS011;57790;51.356;-2.906;2022-07-30T10:40:48;4.07;;;0.88;;
70369;SDS011;57790;51.356;-2.906;2022-07-30T10:47:05;3.87;;;0.97;;
70369;SDS011;57790;51.356;-2.906;2022-07-30T10:53:31;6.20;;;1.00;;
70369;SDS011;57790;51.356;-2.906;2022-07-30T10:56:36;6.25;;;1.17;;
70369;SDS011;57790;51.356;-2.906;2022-07-30T11:09:35;5.93;;;0.70;;
70369;SDS011;57790;51.356;-2.906;2022-07-30T11:15:57;4.50;;;0.85;;
70369;SDS011;57790;51.356;-2.906;2022-07-30T11:22:21;3.92;;;0.80;;
70369;SDS011;57790;51.356;-2.906;2022-07-30T11:28:33;4.33;;;0.90;;
70369;SDS011;57790;51.356;-2.906;2022-07-30T11:31:36;6.70;;;1.10;;
70369;SDS011;57790;51.356;-2.906;2022-07-30T11:34:37;4.40;;;0.80;;
70369;SDS011;57790;51.356;-2.906;2022-07-30T11:37:54;3.93;;;0.93;;
70369;SDS011;57790;51.356;-2.906;2022-07-30T11:41:19;3.63;;;0.75;;
70369;SDS011;57790;51.356;-2.906;2022-07-30T11:44:24;5.53;;;0.90;;
70369;SDS011;57790;51.356;-2.906;2022-07-30T11:47:26;6.13;;;1.20;;
70369;SDS011;57790;51.356;-2.906;2022-07-30T11:50:31;5.50;;;1.10;;
70369;SDS011;57790;51.356;-2.906;2022-07-30T11:53:33;6.07;;;1.20;;
70369;SDS011;57790;51.356;-2.906;2022-07-30T11:56:33;5.40;;;1.33;;
70369;SDS011;57790;51.356;-2.906;2022-07-30T11:59:51;6.70;;;1.13;;
70369;SDS011;57790;51.356;-2.906;2022-07-30T12:02:55;4.32;;;1.27;;
70369;SDS011;57790;51.356;-2.906;2022-07-30T12:06:01;7.57;;;1.30;;
70369;SDS011;57790;51.356;-2.906;2022-07-30T12:09:04;4.97;;;1.20;;
70369;SDS011;57790;51.356;-2.906;2022-07-30T12:12:19;4.27;;;1.10;;
70369;SDS011;57790;51.356;-2.906;2022-07-30T12:15:26;6.90;;;1.42;;
70369;SDS011;57790;51.356;-2.906;2022-07-30T12:18:33;5.03;;;1.30;;
70369;SDS011;57790;51.356;-2.906;2022-07-30T12:21:34;6.13;;;1.60;;
70369;SDS011;57790;51.356;-2.906;2022-07-30T12:24:35;6.67;;;1.60;;
70369;SDS011;57790;51.356;-2.906;2022-07-30T12:27:35;5.25;;;1.50;;
70369;SDS011;57790;51.356;-2.906;2022-07-30T12:30:36;4.97;;;1.60;;
70369;SDS011;57790;51.356;-2.906;2022-07-30T12:33:38;4.97;;;1.77;;
70369;SDS011;57790;51.356;-2.906;2022-07-30T12:36:38;7.87;;;1.73;;
70369;SDS011;57790;51.356;-2.906;2022-07-30T12:39:39;7.27;;;1.77;;
70369;SDS011;57790;51.356;-2.906;2022-07-30T12:42:51;7.47;;;1.60;;
70369;SDS011;57790;51.356;-2.906;2022-07-30T12:45:56;5.07;;;1.40;;
70369;SDS011;57790;51.356;-2.906;2022-07-30T12:49:01;6.38;;;1.30;;
70369;SDS011;57790;51.356;-2.906;2022-07-30T12:52:03;6.43;;;1.40;;
70369;SDS011;57790;51.356;-2.906;2022-07-30T12:55:07;5.47;;;1.20;;
70369;SDS011;57790;51.356;-2.906;2022-07-30T12:58:09;5.63;;;1.33;;
70369;SDS011;57790;51.356;-2.906;2022-07-30T13:01:10;4.67;;;1.20;;
70369;SDS011;57790;51.356;-2.906;2022-07-30T13:04:11;4.28;;;1.40;;
70369;SDS011;57790;51.356;-2.906;2022-07-30T13:07:13;5.70;;;1.60;;
70369;SDS011;57790;51.356;-2.906;2022-07-30T13:10:14;8.10;;;1.70;;
70369;SDS011;57790;51.356;-2.906;2022-07-30T13:13:17;5.30;;;1.63;;
70369;SDS011;57790;51.356;-2.906;2022-07-30T13:16:18;5.15;;;1.63;;
70369;SDS011;57790;51.356;-2.906;2022-07-30T13:19:20;5.97;;;1.90;;
70369;SDS011;57790;51.356;-2.906;2022-07-30T13:22:20;6.20;;;2.00;;
70369;SDS011;57790;51.356;-2.906;2022-07-30T13:25:21;6.80;;;2.30;;
70369;SDS011;57790;51.356;-2.906;2022-07-30T13:28:21;6.63;;;1.93;;
70369;SDS011;57790;51.356;-2.906;2022-07-30T13:31:22;7.68;;;2.40;;
70369;SDS011;57790;51.356;-2.906;2022-07-30T13:34:23;6.07;;;1.93;;
70369;SDS011;57790;51.356;-2.906;2022-07-30T13:37:24;5.70;;;1.67;;
70369;SDS011;57790;51.356;-2.906;2022-07-30T13:40:24;6.47;;;1.70;;
70369;SDS011;57790;51.356;-2.906;2022-07-30T13:43:25;4.78;;;1.90;;
70369;SDS011;57790;51.356;-2.906;2022-07-30T13:46:25;6.00;;;1.73;;
70369;SDS011;57790;51.356;-2.906;2022-07-30T13:49:26;4.77;;;1.70;;
70369;SDS011;57790;51.356;-2.906;2022-07-30T13:52:26;7.23;;;1.90;;
70369;SDS011;57790;51.356;-2.906;2022-07-30T13:55:26;5.97;;;1.90;;
70369;SDS011;57790;51.356;-2.906;2022-07-30T13:58:27;5.40;;;2.00;;
70369;SDS011;57790;51.356;-2.906;2022-07-30T14:01:27;6.13;;;1.90;;
70369;SDS011;57790;51.356;-2.906;2022-07-30T14:04:28;7.40;;;1.80;;
70369;SDS011;57790;51.356;-2.906;2022-07-30T14:07:28;6.55;;;2.40;;
70369;SDS011;57790;51.356;-2.906;2022-07-30T14:10:29;4.80;;;1.87;;
70369;SDS011;57790;51.356;-2.906;2022-07-30T14:13:30;6.68;;;2.17;;
70369;SDS011;57790;51.356;-2.906;2022-07-30T14:16:30;6.03;;;1.90;;
70369;SDS011;57790;51.356;-2.906;2022-07-30T14:19:31;6.27;;;1.80;;
70369;SDS011;57790;51.356;-2.906;2022-07-30T14:22:31;7.37;;;2.17;;
70369;SDS011;57790;51.356;-2.906;2022-07-30T14:25:32;9.45;;;2.13;;
70369;SDS011;57790;51.356;-2.906;2022-07-30T14:28:32;6.60;;;1.90;;
70369;SDS011;57790;51.356;-2.906;2022-07-30T14:31:33;8.67;;;2.00;;
70369;SDS011;57790;51.356;-2.906;2022-07-30T14:34:33;5.90;;;1.92;;
70369;SDS011;57790;51.356;-2.906;2022-07-30T14:37:34;7.17;;;1.73;;
70369;SDS011;57790;51.356;-2.906;2022-07-30T14:40:35;7.90;;;1.95;;
70369;SDS011;57790;51.356;-2.906;2022-07-30T14:43:35;7.93;;;2.10;;
70369;SDS011;57790;51.356;-2.906;2022-07-30T14:46:36;6.97;;;1.90;;
70369;SDS011;57790;51.356;-2.906;2022-07-30T14:49:37;7.63;;;2.17;;
70369;SDS011;57790;51.356;-2.906;2022-07-30T14:52:38;6.63;;;2.00;;
70369;SDS011;57790;51.356;-2.906;2022-07-30T14:55:38;9.67;;;2.37;;
70369;SDS011;57790;51.356;-2.906;2022-07-30T14:58:39;6.90;;;2.20;;
70369;SDS011;57790;51.356;-2.906;2022-07-30T15:01:39;6.77;;;2.30;;
70369;SDS011;57790;51.356;-2.906;2022-07-30T15:04:40;6.73;;;2.20;;
70369;SDS011;57790;51.356;-2.906;2022-07-30T15:07:41;8.63;;;1.92;;
70369;SDS011;57790;51.356;-2.906;2022-07-30T15:10:41;7.20;;;2.20;;
70369;SDS011;57790;51.356;-2.906;2022-07-30T15:13:42;7.13;;;1.97;;
70369;SDS011;57790;51.356;-2.906;2022-07-30T15:16:42;6.33;;;1.87;;
70369;SDS011;57790;51.356;-2.906;2022-07-30T15:19:42;5.33;;;1.67;;
70369;SDS011;57790;51.356;-2.906;2022-07-30T15:22:43;6.30;;;1.80;;
70369;SDS011;57790;51.356;-2.906;2022-07-30T15:25:43;6.77;;;1.73;;
70369;SDS011;57790;51.356;-2.906;2022-07-30T15:28:46;4.50;;;1.50;;
70369;SDS011;57790;51.356;-2.906;2022-07-30T15:31:46;6.67;;;1.77;;
70369;SDS011;57790;51.356;-2.906;2022-07-30T15:34:47;6.70;;;1.70;;
70369;SDS011;57790;51.356;-2.906;2022-07-30T15:37:47;4.70;;;1.40;;
70369;SDS011;57790;51.356;-2.906;2022-07-30T15:40:47;6.37;;;1.50;;
70369;SDS011;57790;51.356;-2.906;2022-07-30T15:43:48;6.93;;;1.80;;
70369;SDS011;57790;51.356;-2.906;2022-07-30T15:46:48;5.83;;;1.40;;
70369;SDS011;57790;51.356;-2.906;2022-07-30T15:49:49;5.70;;;1.48;;
70369;SDS011;57790;51.356;-2.906;2022-07-30T15:52:49;7.10;;;1.60;;
70369;SDS011;57790;51.356;-2.906;2022-07-30T15:55:50;4.77;;;1.50;;
70369;SDS011;57790;51.356;-2.906;2022-07-30T15:58:50;6.60;;;1.60;;
70369;SDS011;57790;51.356;-2.906;2022-07-30T16:01:51;4.65;;;1.38;;
70369;SDS011;57790;51.356;-2.906;2022-07-30T16:04:52;6.13;;;1.57;;
70369;SDS011;57790;51.356;-2.906;2022-07-30T16:07:52;7.15;;;2.22;;
70369;SDS011;57790;51.356;-2.906;2022-07-30T16:10:53;7.57;;;1.90;;
70369;SDS011;57790;51.356;-2.906;2022-07-30T16:13:53;6.27;;;1.60;;
70369;SDS011;57790;51.356;-2.906;2022-07-30T16:16:54;6.27;;;1.70;;
70369;SDS011;57790;51.356;-2.906;2022-07-30T16:19:55;5.72;;;1.67;;
70369;SDS011;57790;51.356;-2.906;2022-07-30T16:22:55;6.20;;;1.70;;
70369;SDS011;57790;51.356;-2.906;2022-07-30T16:25:56;8.40;;;1.67;;
70369;SDS011;57790;51.356;-2.906;2022-07-30T16:28:56;6.80;;;1.77;;
70369;SDS011;57790;51.356;-2.906;2022-07-30T16:31:57;6.13;;;1.50;;
70369;SDS011;57790;51.356;-2.906;2022-07-30T16:34:57;8.70;;;1.93;;
70369;SDS011;57790;51.356;-2.906;2022-07-30T16:37:57;8.23;;;2.40;;
70369;SDS011;57790;51.356;-2.906;2022-07-30T16:41:02;6.07;;;1.95;;
70369;SDS011;57790;51.356;-2.906;2022-07-30T16:44:02;7.15;;;2.20;;
70369;SDS011;57790;51.356;-2.906;2022-07-30T16:47:03;6.40;;;1.90;;
70369;SDS011;57790;51.356;-2.906;2022-07-30T16:50:04;10.10;;;2.33;;
70369;SDS011;57790;51.356;-2.906;2022-07-30T16:53:05;9.75;;;2.30;;
70369;SDS011;57790;51.356;-2.906;2022-07-30T16:56:07;8.97;;;2.33;;
70369;SDS011;57790;51.356;-2.906;2022-07-30T16:59:07;8.38;;;2.60;;
70369;SDS011;57790;51.356;-2.906;2022-07-30T17:02:08;9.87;;;2.73;;
70369;SDS011;57790;51.356;-2.906;2022-07-30T17:05:08;9.97;;;2.60;;
70369;SDS011;57790;51.356;-2.906;2022-07-30T17:08:09;10.07;;;2.15;;
70369;SDS011;57790;51.356;-2.906;2022-07-30T17:11:09;9.87;;;2.87;;
70369;SDS011;57790;51.356;-2.906;2022-07-30T17:14:10;6.93;;;2.20;;
70369;SDS011;57790;51.356;-2.906;2022-07-30T17:17:10;8.73;;;2.50;;
70369;SDS011;57790;51.356;-2.906;2022-07-30T17:20:11;6.50;;;2.60;;
70369;SDS011;57790;51.356;-2.906;2022-07-30T17:23:13;10.15;;;2.60;;
70369;SDS011;57790;51.356;-2.906;2022-07-30T17:26:13;10.50;;;2.83;;
70369;SDS011;57790;51.356;-2.906;2022-07-30T17:29:14;9.03;;;3.13;;
70369;SDS011;57790;51.356;-2.906;2022-07-30T17:32:15;10.38;;;3.20;;
70369;SDS011;57790;51.356;-2.906;2022-07-30T17:35:16;7.75;;;2.30;;
70369;SDS011;57790;51.356;-2.906;2022-07-30T17:38:17;8.63;;;2.40;;
70369;SDS011;57790;51.356;-2.906;2022-07-30T17:41:17;6.18;;;2.00;;
70369;SDS011;57790;51.356;-2.906;2022-07-30T17:44:18;7.97;;;2.20;;
70369;SDS011;57790;51.356;-2.906;2022-07-30T17:47:18;6.63;;;2.23;;
70369;SDS011;57790;51.356;-2.906;2022-07-30T17:50:19;7.07;;;2.10;;
70369;SDS011;57790;51.356;-2.906;2022-07-30T17:53:19;7.47;;;2.22;;
70369;SDS011;57790;51.356;-2.906;2022-07-30T17:56:20;7.90;;;2.50;;
70369;SDS011;57790;51.356;-2.906;2022-07-30T17:59:20;7.30;;;2.10;;
70369;SDS011;57790;51.356;-2.906;2022-07-30T18:02:20;7.30;;;2.67;;
70369;SDS011;57790;51.356;-2.906;2022-07-30T18:05:21;7.20;;;2.20;;
70369;SDS011;57790;51.356;-2.906;2022-07-30T18:08:21;9.00;;;2.53;;
70369;SDS011;57790;51.356;-2.906;2022-07-30T18:11:22;7.03;;;2.30;;
70369;SDS011;57790;51.356;-2.906;2022-07-30T18:14:22;6.97;;;2.00;;
70369;SDS011;57790;51.356;-2.906;2022-07-30T18:17:23;7.20;;;2.10;;
70369;SDS011;57790;51.356;-2.906;2022-07-30T18:20:24;7.67;;;2.30;;
70369;SDS011;57790;51.356;-2.906;2022-07-30T18:23:24;8.87;;;2.33;;
70369;SDS011;57790;51.356;-2.906;2022-07-30T18:26:24;8.00;;;1.90;;
70369;SDS011;57790;51.356;-2.906;2022-07-30T18:29:25;6.97;;;2.07;;
70369;SDS011;57790;51.356;-2.906;2022-07-30T18:32:25;6.63;;;2.10;;
70369;SDS011;57790;51.356;-2.906;2022-07-30T18:35:26;7.83;;;1.90;;
70369;SDS011;57790;51.356;-2.906;2022-07-30T18:38:26;7.63;;;1.83;;